Time;durP1;ratioP1;P1;durP2;ratioP2;P2;SDS_P1;SDS_P2;PMS_P1;PMS_P2;Temp;Humidity;BMP_temperature;BMP_pressure;BME280_temperature;BME280_humidity;BME280_pressure;Samples;Min_cycle;Max_cycle;Signal;HPM_P1;HPM_P2
2023/02/17 00:00:12;;;;;;;5.63;3.53;;;;;;;;;;5012169;28;20068;-74
2023/02/17 00:02:39;;;;;;;6.60;3.20;;;;;;;;;;5011703;28;20059;-73
2023/02/17 00:05:06;;;;;;;6.95;3.22;;;;;;;;;;5029661;28;20049;-74
2023/02/17 00:07:33;;;;;;;4.95;3.47;;;;;;;;;;5028227;28;20429;-73
2023/02/17 00:10:00;;;;;;;4.45;3.28;;;;;;;;;;5028177;28;20057;-74
2023/02/17 00:12:27;;;;;;;6.15;3.55;;;;;;;;;;5028133;28;20053;-73
2023/02/17 00:14:53;;;;;;;5.13;3.42;;;;;;;;;;5028160;28;20061;-75
2023/02/17 00:17:20;;;;;;;6.47;3.20;;;;;;;;;;5029068;28;20064;-74
2023/02/17 00:19:47;;;;;;;7.13;4.43;;;;;;;;;;5028348;28;20064;-73
2023/02/17 00:22:14;;;;;;;6.93;3.60;;;;;;;;;;5027962;28;20393;-73
2023/02/17 00:24:41;;;;;;;7.80;4.03;;;;;;;;;;5029361;28;20049;-73
2023/02/17 00:27:08;;;;;;;5.90;3.17;;;;;;;;;;5027979;28;20060;-73
2023/02/17 00:29:35;;;;;;;6.75;3.20;;;;;;;;;;5011738;28;20053;-73
2023/02/17 00:32:02;;;;;;;3.70;2.92;;;;;;;;;;5028966;28;20049;-74
2023/02/17 00:34:29;;;;;;;7.95;3.72;;;;;;;;;;5012533;28;20437;-74
2023/02/17 00:36:56;;;;;;;8.90;3.70;;;;;;;;;;5028300;28;20444;-74
2023/02/17 00:39:23;;;;;;;5.40;3.38;;;;;;;;;;5029316;28;20063;-75
2023/02/17 00:41:50;;;;;;;4.80;3.08;;;;;;;;;;5011414;28;20049;-75
2023/02/17 00:44:18;;;;;;;5.75;3.10;;;;;;;;;;5029143;28;20045;-75
2023/02/17 00:46:45;;;;;;;7.88;3.25;;;;;;;;;;5027812;28;20072;-74
2023/02/17 00:49:17;;;;;;;7.07;3.42;;;;;;;;;;5027836;28;20391;-74
2023/02/17 00:51:44;;;;;;;6.22;3.40;;;;;;;;;;5029379;28;20060;-74
2023/02/17 00:54:12;;;;;;;7.43;3.20;;;;;;;;;;5030379;28;20049;-74
2023/02/17 00:56:39;;;;;;;4.63;2.95;;;;;;;;;;5027908;28;20084;-74
2023/02/17 00:59:06;;;;;;;6.53;3.05;;;;;;;;;;5027549;28;20062;-74
2023/02/17 01:01:33;;;;;;;5.22;3.33;;;;;;;;;;5027605;28;20057;-74
2023/02/17 01:04:00;;;;;;;8.68;2.70;;;;;;;;;;4995060;28;20060;-74
2023/02/17 01:06:29;;;;;;;9.73;4.22;;;;;;;;;;5011677;28;20054;-74
2023/02/17 01:08:56;;;;;;;6.97;2.80;;;;;;;;;;4998420;28;20068;-74
2023/02/17 01:11:25;;;;;;;9.45;3.15;;;;;;;;;;5011358;28;20133;-74
2023/02/17 01:13:52;;;;;;;5.00;3.17;;;;;;;;;;4991994;28;20053;-74
2023/02/17 01:16:38;;;;;;;4.68;2.88;;;;;;;;;;5008249;28;20482;-74
2023/02/17 01:19:08;;;;;;;7.65;2.95;;;;;;;;;;5007743;28;20076;-74
2023/02/17 01:21:35;;;;;;;6.07;2.85;;;;;;;;;;5009458;28;20057;-74
2023/02/17 01:24:03;;;;;;;6.07;2.63;;;;;;;;;;4998638;28;20041;-74
2023/02/17 01:26:31;;;;;;;6.75;2.63;;;;;;;;;;5031245;28;20144;-73
2023/02/17 01:28:58;;;;;;;6.20;3.13;;;;;;;;;;5014766;28;20064;-73
2023/02/17 01:31:28;;;;;;;3.13;2.28;;;;;;;;;;5031178;28;20053;-73
2023/02/17 01:33:56;;;;;;;3.33;2.78;;;;;;;;;;5015042;28;20056;-73
2023/02/17 01:36:23;;;;;;;4.95;2.50;;;;;;;;;;5030859;28;20094;-73
2023/02/17 01:38:50;;;;;;;7.03;2.80;;;;;;;;;;5031133;28;20413;-73
2023/02/17 01:41:18;;;;;;;5.20;2.67;;;;;;;;;;5014667;28;20281;-73
2023/02/17 01:44:11;;;;;;;5.10;2.72;;;;;;;;;;5014321;28;20049;-73
2023/02/17 01:46:39;;;;;;;5.90;2.70;;;;;;;;;;5030790;28;20049;-74
2023/02/17 01:49:28;;;;;;;6.15;2.83;;;;;;;;;;5030513;28;20528;-75
2023/02/17 01:52:03;;;;;;;8.02;3.13;;;;;;;;;;5030697;28;20651;-75
2023/02/17 01:54:39;;;;;;;6.25;2.55;;;;;;;;;;5030511;28;20045;-75
2023/02/17 01:57:05;;;;;;;7.18;2.63;;;;;;;;;;5011734;28;20073;-75
2023/02/17 01:59:32;;;;;;;6.85;2.45;;;;;;;;;;4995514;28;20445;-75
2023/02/17 02:02:01;;;;;;;5.60;2.75;;;;;;;;;;4998126;28;20053;-74
2023/02/17 02:04:30;;;;;;;5.28;3.20;;;;;;;;;;4999922;28;20063;-74
2023/02/17 02:06:57;;;;;;;6.13;2.88;;;;;;;;;;5032393;28;20520;-74
2023/02/17 02:09:34;;;;;;;6.30;2.78;;;;;;;;;;5032097;28;20059;-74
2023/02/17 02:12:25;;;;;;;7.00;2.75;;;;;;;;;;5016651;28;20054;-74
2023/02/17 02:14:53;;;;;;;5.30;2.70;;;;;;;;;;5032486;28;20057;-75
2023/02/17 02:17:59;;;;;;;5.68;2.47;;;;;;;;;;5012032;28;20064;-75
2023/02/17 02:20:31;;;;;;;3.63;2.78;;;;;;;;;;4998891;28;20068;-75
2023/02/17 02:23:29;;;;;;;6.60;2.67;;;;;;;;;;5020377;28;20085;-74
2023/02/17 02:26:37;;;;;;;6.53;2.83;;;;;;;;;;5031603;28;20049;-75
2023/02/17 02:29:24;;;;;;;3.78;2.58;;;;;;;;;;5013752;28;20053;-74
2023/02/17 02:32:25;;;;;;;7.53;3.10;;;;;;;;;;5013633;28;20064;-75
2023/02/17 02:35:00;;;;;;;4.10;2.88;;;;;;;;;;5031166;28;20061;-75
2023/02/17 02:37:34;;;;;;;5.00;2.70;;;;;;;;;;5013533;28;20140;-74
2023/02/17 02:40:03;;;;;;;6.85;3.08;;;;;;;;;;5030192;28;20056;-75
2023/02/17 02:42:30;;;;;;;5.53;2.83;;;;;;;;;;5013800;28;20060;-75
2023/02/17 02:44:57;;;;;;;5.85;2.65;;;;;;;;;;5013320;28;20049;-75
2023/02/17 02:47:39;;;;;;;13.88;3.03;;;;;;;;;;5013971;28;20057;-75
2023/02/17 02:50:06;;;;;;;5.03;2.22;;;;;;;;;;5031542;28;20049;-74
2023/02/17 02:52:51;;;;;;;6.30;2.65;;;;;;;;;;5029831;28;20547;-74
2023/02/17 02:55:38;;;;;;;6.72;2.72;;;;;;;;;;5031062;28;20071;-74
2023/02/17 02:58:24;;;;;;;7.45;3.20;;;;;;;;;;5023347;28;20061;-74
2023/02/17 03:00:54;;;;;;;6.97;3.00;;;;;;;;;;5031128;28;20049;-74
2023/02/17 03:03:33;;;;;;;7.00;3.28;;;;;;;;;;5029419;28;20063;-74
2023/02/17 03:06:03;;;;;;;6.60;2.85;;;;;;;;;;5014813;28;20046;-74
2023/02/17 03:08:50;;;;;;;6.43;2.90;;;;;;;;;;5029365;28;20493;-74
2023/02/17 03:11:31;;;;;;;5.00;2.53;;;;;;;;;;5029359;28;20160;-73
2023/02/17 03:14:01;;;;;;;5.78;2.75;;;;;;;;;;5000606;28;20208;-73
2023/02/17 03:16:28;;;;;;;6.47;3.55;;;;;;;;;;5029573;28;20053;-73
2023/02/17 03:18:55;;;;;;;5.20;3.03;;;;;;;;;;5030531;28;20100;-73
2023/02/17 03:21:22;;;;;;;7.18;2.95;;;;;;;;;;5013496;28;20057;-74
2023/02/17 03:23:48;;;;;;;6.45;2.95;;;;;;;;;;5013844;28;20139;-75
2023/02/17 03:26:15;;;;;;;4.05;2.58;;;;;;;;;;5013450;28;20056;-74
2023/02/17 03:28:42;;;;;;;7.60;3.17;;;;;;;;;;5030495;28;20236;-74
2023/02/17 03:31:09;;;;;;;7.57;2.95;;;;;;;;;;5028955;28;20097;-74
2023/02/17 03:33:36;;;;;;;6.00;2.88;;;;;;;;;;5012356;28;20060;-74
2023/02/17 03:36:03;;;;;;;5.63;2.58;;;;;;;;;;4996620;28;20424;-73
2023/02/17 03:38:30;;;;;;;5.00;3.03;;;;;;;;;;5012549;28;20057;-74
2023/02/17 03:40:57;;;;;;;6.22;3.20;;;;;;;;;;5028783;28;20049;-74
2023/02/17 03:43:23;;;;;;;6.85;2.70;;;;;;;;;;5012162;28;20053;-73
2023/02/17 03:45:50;;;;;;;4.00;2.80;;;;;;;;;;5029238;28;20060;-75
2023/02/17 03:48:17;;;;;;;6.80;2.90;;;;;;;;;;5028813;28;20089;-76
2023/02/17 03:50:44;;;;;;;3.95;2.15;;;;;;;;;;5029045;28;20057;-75
2023/02/17 03:53:11;;;;;;;7.00;2.92;;;;;;;;;;5029844;28;20049;-74
2023/02/17 03:55:37;;;;;;;4.97;2.50;;;;;;;;;;5021064;28;20149;-75
2023/02/17 03:58:04;;;;;;;6.03;3.10;;;;;;;;;;4995691;28;20360;-75
2023/02/17 04:00:31;;;;;;;4.85;2.70;;;;;;;;;;5011975;28;20049;-75
2023/02/17 04:02:58;;;;;;;4.70;3.45;;;;;;;;;;5008523;28;20164;-75
2023/02/17 04:05:24;;;;;;;10.07;3.30;;;;;;;;;;5008514;28;20502;-75
2023/02/17 04:07:51;;;;;;;6.50;2.30;;;;;;;;;;5008586;28;20054;-76
2023/02/17 04:10:18;;;;;;;3.50;2.45;;;;;;;;;;4992487;28;20054;-75
2023/02/17 04:12:45;;;;;;;4.50;2.63;;;;;;;;;;5013742;28;20136;-75
2023/02/17 04:15:12;;;;;;;5.72;3.08;;;;;;;;;;5014374;28;20056;-76
2023/02/17 04:17:38;;;;;;;6.30;3.00;;;;;;;;;;5028206;28;20156;-75
2023/02/17 04:20:06;;;;;;;5.03;3.15;;;;;;;;;;5028253;28;20050;-76
2023/02/17 04:22:33;;;;;;;4.35;2.78;;;;;;;;;;5011233;28;20053;-77
2023/02/17 04:24:59;;;;;;;4.50;2.95;;;;;;;;;;5028444;28;20049;-77
2023/02/17 04:27:26;;;;;;;8.90;3.20;;;;;;;;;;5028159;28;20103;-77
2023/02/17 04:29:53;;;;;;;5.05;2.65;;;;;;;;;;5029344;28;20057;-77
2023/02/17 04:32:20;;;;;;;9.85;3.10;;;;;;;;;;5012009;28;20509;-77
2023/02/17 04:34:47;;;;;;;8.10;3.30;;;;;;;;;;5029517;28;20540;-77
2023/02/17 04:37:13;;;;;;;7.13;2.95;;;;;;;;;;5029455;28;20084;-75
2023/02/17 04:39:40;;;;;;;15.48;3.20;;;;;;;;;;5027972;28;20053;-75
2023/02/17 04:42:07;;;;;;;6.60;3.10;;;;;;;;;;5027967;28;20276;-76
2023/02/17 04:44:34;;;;;;;6.97;4.07;;;;;;;;;;5028075;28;20046;-76
2023/02/17 04:47:00;;;;;;;7.10;3.13;;;;;;;;;;5027921;28;20056;-76
2023/02/17 04:49:27;;;;;;;6.15;2.88;;;;;;;;;;5012494;28;20049;-73
2023/02/17 04:51:54;;;;;;;5.85;2.72;;;;;;;;;;5026757;28;20128;-75
2023/02/17 04:54:21;;;;;;;7.68;2.85;;;;;;;;;;4995578;28;20085;-76
2023/02/17 04:56:48;;;;;;;4.70;2.90;;;;;;;;;;5028786;28;20140;-75
2023/02/17 04:59:15;;;;;;;8.75;4.05;;;;;;;;;;5032042;28;20061;-75
2023/02/17 05:01:42;;;;;;;5.78;3.42;;;;;;;;;;5032231;28;20085;-75
2023/02/17 05:04:08;;;;;;;6.55;4.30;;;;;;;;;;5032271;28;20672;-76
2023/02/17 05:06:35;;;;;;;13.55;7.43;;;;;;;;;;5032271;28;20482;-75
2023/02/17 05:09:02;;;;;;;7.18;3.78;;;;;;;;;;5023893;28;20049;-75
2023/02/17 05:11:30;;;;;;;5.97;3.10;;;;;;;;;;4995884;28;20054;-77
2023/02/17 05:13:57;;;;;;;8.25;4.38;;;;;;;;;;4979961;28;20100;-76
2023/02/17 05:16:24;;;;;;;5.25;3.47;;;;;;;;;;4979783;28;20418;-75
2023/02/17 05:18:51;;;;;;;7.88;3.00;;;;;;;;;;5013080;28;20054;-76
2023/02/17 05:21:18;;;;;;;8.02;2.92;;;;;;;;;;5013052;28;20137;-75
2023/02/17 05:23:45;;;;;;;3.42;2.90;;;;;;;;;;4998690;28;20054;-75
2023/02/17 05:26:12;;;;;;;8.77;3.40;;;;;;;;;;5032614;28;20059;-76
2023/02/17 05:28:38;;;;;;;10.00;4.50;;;;;;;;;;5014900;28;20057;-76
2023/02/17 05:31:05;;;;;;;7.38;3.50;;;;;;;;;;5015473;28;20095;-75
2023/02/17 05:33:32;;;;;;;10.18;4.53;;;;;;;;;;5014949;28;20076;-76
2023/02/17 05:36:04;;;;;;;8.13;4.13;;;;;;;;;;5031166;28;20195;-77
2023/02/17 05:38:32;;;;;;;7.37;4.00;;;;;;;;;;5030954;28;20088;-76
2023/02/17 05:40:58;;;;;;;7.30;3.63;;;;;;;;;;5032464;28;20132;-76
2023/02/17 05:43:25;;;;;;;7.85;3.42;;;;;;;;;;5031034;28;20132;-75
2023/02/17 05:45:52;;;;;;;5.18;3.33;;;;;;;;;;5021289;28;20053;-76
2023/02/17 05:48:19;;;;;;;4.95;2.67;;;;;;;;;;5006836;28;20462;-76
2023/02/17 05:50:46;;;;;;;7.72;3.17;;;;;;;;;;5005672;28;20058;-77
2023/02/17 05:53:13;;;;;;;7.13;3.40;;;;;;;;;;5002220;28;20081;-75
2023/02/17 05:55:40;;;;;;;5.25;3.22;;;;;;;;;;5031123;28;20065;-75
2023/02/17 05:58:07;;;;;;;4.43;2.58;;;;;;;;;;5015019;28;20132;-75
2023/02/17 06:00:34;;;;;;;7.03;2.97;;;;;;;;;;5004705;28;20052;-75
2023/02/17 06:03:02;;;;;;;4.70;2.80;;;;;;;;;;5005450;28;20060;-74
2023/02/17 06:05:29;;;;;;;7.28;2.83;;;;;;;;;;5012853;28;20079;-75
2023/02/17 06:07:55;;;;;;;7.63;3.10;;;;;;;;;;5031831;28;20140;-76
2023/02/17 06:10:22;;;;;;;4.80;2.95;;;;;;;;;;5031203;28;20052;-75
2023/02/17 06:12:49;;;;;;;5.50;2.78;;;;;;;;;;5031590;28;20057;-74
2023/02/17 06:15:16;;;;;;;7.38;2.80;;;;;;;;;;5031882;28;20049;-75
2023/02/17 06:17:43;;;;;;;8.27;2.78;;;;;;;;;;5014359;28;20049;-74
2023/02/17 06:20:10;;;;;;;5.38;2.90;;;;;;;;;;5014875;28;20417;-75
2023/02/17 06:22:36;;;;;;;4.57;3.10;;;;;;;;;;5007323;28;20413;-75
2023/02/17 06:25:04;;;;;;;6.70;2.72;;;;;;;;;;5011396;28;20089;-75
2023/02/17 06:27:30;;;;;;;6.10;3.78;;;;;;;;;;5010415;28;20411;-74
2023/02/17 06:29:57;;;;;;;5.28;2.90;;;;;;;;;;5011739;28;20685;-74
2023/02/17 06:32:25;;;;;;;5.40;2.65;;;;;;;;;;5009038;28;20141;-74
2023/02/17 06:34:53;;;;;;;4.75;2.75;;;;;;;;;;5009838;28;20060;-74
2023/02/17 06:37:20;;;;;;;4.78;2.90;;;;;;;;;;5010592;28;20133;-74
2023/02/17 06:39:46;;;;;;;5.13;3.22;;;;;;;;;;5008701;28;20524;-74
2023/02/17 06:42:13;;;;;;;5.85;2.50;;;;;;;;;;4993095;28;20149;-74
2023/02/17 06:44:40;;;;;;;5.78;2.15;;;;;;;;;;5009361;28;20421;-74
2023/02/17 06:47:07;;;;;;;6.93;3.22;;;;;;;;;;5012159;28;20144;-73
2023/02/17 06:49:34;;;;;;;4.88;2.88;;;;;;;;;;5028599;28;20045;-74
2023/02/17 06:52:01;;;;;;;5.93;3.08;;;;;;;;;;5012237;28;20057;-74
2023/02/17 06:54:28;;;;;;;4.95;2.90;;;;;;;;;;5026870;28;20049;-74
2023/02/17 06:56:54;;;;;;;4.35;2.53;;;;;;;;;;5009885;28;20073;-74
2023/02/17 06:59:21;;;;;;;4.35;2.50;;;;;;;;;;4993186;28;20140;-72
2023/02/17 07:01:49;;;;;;;7.57;3.03;;;;;;;;;;5008734;28;20054;-74
2023/02/17 07:04:16;;;;;;;4.88;2.72;;;;;;;;;;5010023;28;20060;-73
2023/02/17 07:06:43;;;;;;;3.58;2.65;;;;;;;;;;5008709;28;20489;-73
2023/02/17 07:09:12;;;;;;;4.30;3.00;;;;;;;;;;5010522;28;20064;-74
2023/02/17 07:11:40;;;;;;;5.47;3.15;;;;;;;;;;4992915;28;20060;-74
2023/02/17 07:14:07;;;;;;;4.13;2.20;;;;;;;;;;4976733;28;20437;-73
2023/02/17 07:16:34;;;;;;;7.38;2.85;;;;;;;;;;5008615;28;20058;-73
2023/02/17 07:19:01;;;;;;;4.07;2.80;;;;;;;;;;5009186;28;20054;-73
2023/02/17 07:21:27;;;;;;;6.88;3.05;;;;;;;;;;4992052;28;20046;-74
2023/02/17 07:23:54;;;;;;;5.00;2.55;;;;;;;;;;5009682;28;20058;-76
2023/02/17 07:26:21;;;;;;;4.07;2.38;;;;;;;;;;5008115;28;20064;-77
2023/02/17 07:28:48;;;;;;;5.18;2.40;;;;;;;;;;4999774;28;20108;-76
2023/02/17 07:31:16;;;;;;;5.15;2.53;;;;;;;;;;5027280;28;20137;-76
2023/02/17 07:33:44;;;;;;;6.60;2.30;;;;;;;;;;5010647;28;20103;-77
2023/02/17 07:36:14;;;;;;;5.72;2.58;;;;;;;;;;5011423;28;20128;-76
2023/02/17 07:38:41;;;;;;;4.00;2.50;;;;;;;;;;5007048;28;20203;-76
2023/02/17 07:41:09;;;;;;;4.05;3.17;;;;;;;;;;4991720;28;20157;-77
2023/02/17 07:43:36;;;;;;;10.55;3.25;;;;;;;;;;5007741;28;20046;-77
2023/02/17 07:46:03;;;;;;;4.80;2.80;;;;;;;;;;5009351;28;20779;-77
2023/02/17 07:48:31;;;;;;;3.72;2.50;;;;;;;;;;5011385;28;20083;-76
2023/02/17 07:51:13;;;;;;;5.32;2.72;;;;;;;;;;5023458;28;20056;-76
2023/02/17 07:53:40;;;;;;;3.42;2.53;;;;;;;;;;5017838;28;20132;-76
2023/02/17 07:56:10;;;;;;;4.82;2.30;;;;;;;;;;5011138;28;20498;-76
2023/02/17 07:58:38;;;;;;;7.63;3.30;;;;;;;;;;5026699;28;20088;-77
2023/02/17 08:01:10;;;;;;;14.95;2.60;;;;;;;;;;5028898;28;20057;-76
2023/02/17 08:03:38;;;;;;;4.28;2.25;;;;;;;;;;5027213;28;20057;-75
2023/02/17 08:06:13;;;;;;;3.72;2.35;;;;;;;;;;5020247;28;20049;-75
2023/02/17 08:14:14;;;;;;;2.92;2.30;;;;;;;;;;5007185;28;20397;-75
2023/02/17 08:16:41;;;;;;;4.30;2.63;;;;;;;;;;5009767;28;20563;-74
2023/02/17 08:19:08;;;;;;;6.03;3.15;;;;;;;;;;5010227;28;20056;-73
2023/02/17 08:21:35;;;;;;;3.58;2.45;;;;;;;;;;4975642;28;20141;-74
2023/02/17 08:24:02;;;;;;;6.00;3.00;;;;;;;;;;5008297;28;20053;-74
2023/02/17 08:26:29;;;;;;;3.80;2.03;;;;;;;;;;4992224;28;20049;-74
2023/02/17 08:28:56;;;;;;;4.57;2.30;;;;;;;;;;5011216;28;20056;-83
2023/02/17 08:31:25;;;;;;;5.00;2.28;;;;;;;;;;5014338;28;20053;-76
2023/02/17 08:33:52;;;;;;;4.85;2.25;;;;;;;;;;5030083;28;20049;-78
2023/02/17 08:36:23;;;;;;;4.65;2.60;;;;;;;;;;5030770;28;20105;-80
2023/02/17 08:38:51;;;;;;;2.92;2.13;;;;;;;;;;5032985;28;20115;-73
2023/02/17 08:41:28;;;;;;;3.67;2.38;;;;;;;;;;5027941;28;20483;-72
2023/02/17 08:43:56;;;;;;;3.78;2.53;;;;;;;;;;5012280;28;20175;-73
2023/02/17 08:46:23;;;;;;;3.28;2.15;;;;;;;;;;5028108;28;20054;-73
2023/02/17 08:48:51;;;;;;;3.72;2.35;;;;;;;;;;5027456;28;20056;-74
2023/02/17 08:51:22;;;;;;;3.72;2.17;;;;;;;;;;5029104;28;20152;-75
2023/02/17 08:53:49;;;;;;;4.40;2.28;;;;;;;;;;5012001;28;20463;-75
2023/02/17 08:56:16;;;;;;;3.72;2.08;;;;;;;;;;5029078;28;20054;-74
2023/02/17 08:58:43;;;;;;;4.63;1.80;;;;;;;;;;5012504;28;20148;-75
2023/02/17 09:01:10;;;;;;;5.88;2.17;;;;;;;;;;5028713;28;20065;-74
2023/02/17 09:03:37;;;;;;;4.85;2.22;;;;;;;;;;5028580;28;20132;-75
2023/02/17 09:06:04;;;;;;;3.13;1.80;;;;;;;;;;5011482;28;20145;-74
2023/02/17 09:08:32;;;;;;;8.15;2.90;;;;;;;;;;5027953;28;20050;-74
2023/02/17 09:10:59;;;;;;;3.42;2.40;;;;;;;;;;5010971;28;20158;-74
2023/02/17 09:13:26;;;;;;;2.88;2.10;;;;;;;;;;5011548;28;20469;-74
2023/02/17 09:15:53;;;;;;;6.28;2.17;;;;;;;;;;5002225;28;20137;-72
2023/02/17 09:18:20;;;;;;;3.50;1.55;;;;;;;;;;4992995;28;20062;-74
2023/02/17 09:20:47;;;;;;;2.60;1.65;;;;;;;;;;4991807;28;20057;-73
2023/02/17 09:23:15;;;;;;;3.40;1.42;;;;;;;;;;5008564;28;20476;-74
2023/02/17 09:25:42;;;;;;;4.05;1.80;;;;;;;;;;5008101;28;20420;-73
2023/02/17 09:28:09;;;;;;;4.80;1.75;;;;;;;;;;4979450;28;20493;-74
2023/02/17 09:30:36;;;;;;;3.75;1.70;;;;;;;;;;4991980;28;20081;-73
2023/02/17 09:33:04;;;;;;;3.50;2.00;;;;;;;;;;4999096;28;20441;-73
2023/02/17 09:35:31;;;;;;;4.35;1.67;;;;;;;;;;5002766;28;20045;-74
2023/02/17 09:37:59;;;;;;;4.65;1.70;;;;;;;;;;4998968;28;20056;-73
2023/02/17 09:40:38;;;;;;;2.88;1.83;;;;;;;;;;4998626;28;20053;-74
2023/02/17 09:43:10;;;;;;;5.28;2.13;;;;;;;;;;5010081;28;20054;-74
2023/02/17 09:45:37;;;;;;;2.15;1.88;;;;;;;;;;5020181;28;20052;-74
2023/02/17 09:48:09;;;;;;;4.65;2.38;;;;;;;;;;4984240;28;20544;-73
2023/02/17 09:50:44;;;;;;;2.03;1.60;;;;;;;;;;5008479;28;20088;-73
2023/02/17 09:53:23;;;;;;;3.03;1.60;;;;;;;;;;5019663;28;20049;-73
2023/02/17 09:55:52;;;;;;;2.83;1.67;;;;;;;;;;5006859;28;20064;-73
2023/02/17 09:58:31;;;;;;;2.33;1.30;;;;;;;;;;5018924;28;20058;-72
2023/02/17 10:01:01;;;;;;;2.75;1.48;;;;;;;;;;5020492;28;20077;-74
2023/02/17 10:03:42;;;;;;;2.97;1.60;;;;;;;;;;5016778;28;20085;-73
2023/02/17 10:06:15;;;;;;;2.00;1.25;;;;;;;;;;5020635;28;20049;-74
2023/02/17 10:08:50;;;;;;;3.63;1.58;;;;;;;;;;5017366;28;20152;-73
2023/02/17 10:11:22;;;;;;;3.92;1.55;;;;;;;;;;5016667;28;20497;-73
2023/02/17 10:13:50;;;;;;;3.20;1.57;;;;;;;;;;5002893;28;20152;-73
2023/02/17 10:16:20;;;;;;;1.88;1.40;;;;;;;;;;5001900;28;20053;-73
2023/02/17 10:18:57;;;;;;;2.75;1.65;;;;;;;;;;5010711;28;20055;-74
2023/02/17 10:21:31;;;;;;;2.25;1.40;;;;;;;;;;5007631;28;20435;-74
2023/02/17 10:23:58;;;;;;;2.15;1.13;;;;;;;;;;4999670;28;20061;-74
2023/02/17 10:26:49;;;;;;;3.30;2.05;;;;;;;;;;4989258;28;20050;-74
2023/02/17 10:29:44;;;;;;;5.68;3.05;;;;;;;;;;5015660;28;20049;-74
2023/02/17 10:32:19;;;;;;;4.45;2.55;;;;;;;;;;5029509;28;20049;-75
2023/02/17 10:35:12;;;;;;;2.72;1.90;;;;;;;;;;5001369;28;20050;-75
2023/02/17 10:37:48;;;;;;;5.30;1.77;;;;;;;;;;5019050;28;20502;-74
2023/02/17 10:40:26;;;;;;;6.93;2.10;;;;;;;;;;5004431;28;20046;-75
2023/02/17 10:42:59;;;;;;;5.05;2.00;;;;;;;;;;4996101;28;20111;-74
2023/02/17 10:45:41;;;;;;;3.85;1.88;;;;;;;;;;5019976;28;20490;-74
2023/02/17 10:48:08;;;;;;;2.17;1.65;;;;;;;;;;5000816;28;20149;-74
2023/02/17 10:50:36;;;;;;;4.70;2.65;;;;;;;;;;5023335;28;20045;-74
2023/02/17 10:53:18;;;;;;;4.72;3.33;;;;;;;;;;5016667;28;20069;-74
2023/02/17 10:55:48;;;;;;;2.77;2.47;;;;;;;;;;5009512;28;20053;-73
2023/02/17 10:58:21;;;;;;;3.00;1.67;;;;;;;;;;5023039;28;20049;-77
2023/02/17 11:00:51;;;;;;;3.22;1.60;;;;;;;;;;5019075;28;20168;-73
2023/02/17 11:03:19;;;;;;;2.85;1.58;;;;;;;;;;5021654;28;20054;-73
2023/02/17 11:06:03;;;;;;;5.35;1.50;;;;;;;;;;5019072;28;20054;-74
2023/02/17 11:08:48;;;;;;;2.88;2.13;;;;;;;;;;5001355;28;20465;-73
2023/02/17 11:11:29;;;;;;;3.83;2.35;;;;;;;;;;5008803;28;20055;-73
2023/02/17 11:14:07;;;;;;;4.18;2.05;;;;;;;;;;5003799;28;20048;-73
2023/02/17 11:16:40;;;;;;;3.65;2.10;;;;;;;;;;5013918;28;20128;-73
2023/02/17 11:19:21;;;;;;;5.13;1.70;;;;;;;;;;4991253;28;20133;-72
2023/02/17 11:21:50;;;;;;;3.67;1.90;;;;;;;;;;5012602;28;20120;-74
2023/02/17 11:24:17;;;;;;;2.75;1.83;;;;;;;;;;4992887;28;20072;-74
2023/02/17 11:26:54;;;;;;;3.58;2.50;;;;;;;;;;5000987;28;20054;-76
2023/02/17 11:29:22;;;;;;;1.38;0.85;;;;;;;;;;5000037;28;20135;-76
2023/02/17 11:32:03;;;;;;;2.42;1.38;;;;;;;;;;5013750;28;20085;-76
2023/02/17 11:34:31;;;;;;;4.00;2.00;;;;;;;;;;5000820;28;20134;-76
2023/02/17 11:37:05;;;;;;;1.02;0.90;;;;;;;;;;4999623;28;20515;-76
2023/02/17 11:39:43;;;;;;;0.47;0.47;;;;;;;;;;5019186;28;20056;-77
2023/02/17 11:42:16;;;;;;;1.67;0.77;;;;;;;;;;5001173;28;20053;-73
2023/02/17 11:44:42;;;;;;;0.88;0.50;;;;;;;;;;4987391;28;20046;-73
2023/02/17 11:47:40;;;;;;;1.63;0.60;;;;;;;;;;4998746;28;20049;-74
2023/02/17 11:50:21;;;;;;;0.35;0.20;;;;;;;;;;5000331;28;20057;-74
2023/02/17 11:53:35;;;;;;;1.80;0.68;;;;;;;;;;5000565;28;20058;-74
2023/02/17 11:56:09;;;;;;;1.00;0.50;;;;;;;;;;4994813;28;20050;-72
2023/02/17 11:58:58;;;;;;;0.98;0.55;;;;;;;;;;5014835;28;20054;-73
2023/02/17 12:01:54;;;;;;;2.22;1.08;;;;;;;;;;5017251;28;20140;-74
2023/02/17 12:04:32;;;;;;;2.70;1.58;;;;;;;;;;5013386;28;20556;-73
2023/02/17 12:07:14;;;;;;;1.80;1.10;;;;;;;;;;4999724;28;20045;-75
2023/02/17 12:10:00;;;;;;;1.20;0.80;;;;;;;;;;4999835;28;20221;-73
2023/02/17 12:12:39;;;;;;;2.28;0.70;;;;;;;;;;5018308;28;20517;-72
2023/02/17 12:15:57;;;;;;;1.48;0.50;;;;;;;;;;5015010;28;20056;-73
2023/02/17 12:18:43;;;;;;;4.15;2.25;;;;;;;;;;4987790;28;20061;-72
2023/02/17 12:21:26;;;;;;;3.15;1.27;;;;;;;;;;5013859;28;20085;-72
2023/02/17 12:24:17;;;;;;;0.90;0.70;;;;;;;;;;5000913;28;20052;-71
2023/02/17 12:26:49;;;;;;;0.95;0.80;;;;;;;;;;5018138;28;20565;-71
2023/02/17 12:29:31;;;;;;;;;;;;;;;;;;5002528;28;20139;-72
2023/02/17 12:32:34;;;;;;;0.38;0.30;;;;;;;;;;5014269;28;19925;-72
2023/02/17 12:35:23;;;;;;;1.48;0.43;;;;;;;;;;4984525;28;20140;-72
2023/02/17 12:38:02;;;;;;;0.65;0.60;;;;;;;;;;5015571;28;20100;-72
2023/02/17 12:40:44;;;;;;;1.27;1.00;;;;;;;;;;5014600;28;20140;-71
2023/02/17 12:43:27;;;;;;;2.47;0.80;;;;;;;;;;5001752;28;20080;-72
2023/02/17 12:45:56;;;;;;;1.30;0.65;;;;;;;;;;5024385;28;20400;-72
2023/02/17 12:48:35;;;;;;;1.15;0.52;;;;;;;;;;5013860;28;20053;-72
2023/02/17 12:51:10;;;;;;;1.52;0.80;;;;;;;;;;5004912;28;20526;-72
2023/02/17 12:53:56;;;;;;;0.95;0.52;;;;;;;;;;5001953;28;20120;-72
2023/02/17 12:56:30;;;;;;;0.98;0.50;;;;;;;;;;5012790;28;20084;-73
2023/02/17 12:59:10;;;;;;;1.15;0.70;;;;;;;;;;5013810;28;20064;-72
2023/02/17 13:01:41;;;;;;;1.13;0.57;;;;;;;;;;5007378;28;20112;-72
2023/02/17 13:04:10;;;;;;;1.20;0.50;;;;;;;;;;5018684;28;20496;-72
2023/02/17 13:06:38;;;;;;;1.42;0.75;;;;;;;;;;4997526;28;20108;-73
2023/02/17 13:09:27;;;;;;;2.05;1.10;;;;;;;;;;4991717;28;20060;-72
2023/02/17 13:12:07;;;;;;;1.00;0.60;;;;;;;;;;5018470;28;20054;-72
2023/02/17 13:14:43;;;;;;;0.68;0.50;;;;;;;;;;4997382;28;20054;-72
2023/02/17 13:17:27;;;;;;;1.00;0.52;;;;;;;;;;4991600;28;20064;-72
2023/02/17 13:20:20;;;;;;;2.00;0.90;;;;;;;;;;5020730;28;20053;-73
2023/02/17 13:22:46;;;;;;;3.00;1.17;;;;;;;;;;5017364;28;20060;-73
2023/02/17 13:25:27;;;;;;;1.55;0.57;;;;;;;;;;5025583;28;20145;-72
2023/02/17 13:27:54;;;;;;;1.52;0.90;;;;;;;;;;5008191;28;20085;-72
2023/02/17 13:30:21;;;;;;;3.15;0.75;;;;;;;;;;5016593;28;20054;-72
2023/02/17 13:33:03;;;;;;;0.73;0.60;;;;;;;;;;5017709;28;20785;-72
2023/02/17 13:35:35;;;;;;;0.80;0.80;;;;;;;;;;5022532;28;20050;-72
2023/02/17 13:38:02;;;;;;;1.90;0.88;;;;;;;;;;5005108;28;20529;-72
2023/02/17 13:40:29;;;;;;;2.00;1.48;;;;;;;;;;5019535;28;20045;-72
2023/02/17 13:42:56;;;;;;;1.45;0.60;;;;;;;;;;5017623;28;20054;-72
2023/02/17 13:45:26;;;;;;;1.15;0.80;;;;;;;;;;4986896;28;20061;-72
2023/02/17 13:47:57;;;;;;;0.95;0.88;;;;;;;;;;5000734;28;20585;-72
2023/02/17 13:50:27;;;;;;;1.45;0.80;;;;;;;;;;5002087;28;20132;-72
2023/02/17 13:52:54;;;;;;;1.20;0.88;;;;;;;;;;4978162;28;20058;-72
2023/02/17 13:55:23;;;;;;;2.60;1.45;;;;;;;;;;4995105;28;20086;-72
2023/02/17 13:57:54;;;;;;;1.40;1.00;;;;;;;;;;4995035;28;20136;-71
2023/02/17 14:00:29;;;;;;;1.15;0.85;;;;;;;;;;5023509;28;20701;-73
2023/02/17 14:03:23;;;;;;;1.25;0.88;;;;;;;;;;4996615;28;20132;-72
2023/02/17 14:05:52;;;;;;;1.17;0.95;;;;;;;;;;5010833;28;20057;-73
2023/02/17 14:08:28;;;;;;;2.40;1.38;;;;;;;;;;5004095;28;20049;-73
2023/02/17 14:10:55;;;;;;;1.13;0.90;;;;;;;;;;5010450;28;20053;-73
2023/02/17 14:13:22;;;;;;;3.30;0.80;;;;;;;;;;4987076;28;20141;-72
2023/02/17 14:15:59;;;;;;;1.45;0.90;;;;;;;;;;5007450;28;20057;-73
2023/02/17 14:18:33;;;;;;;1.10;0.80;;;;;;;;;;5004253;28;20054;-71
2023/02/17 14:21:03;;;;;;;1.60;0.52;;;;;;;;;;5019913;28;20140;-73
2023/02/17 14:23:51;;;;;;;0.90;0.85;;;;;;;;;;5004004;28;20137;-73
2023/02/17 14:26:29;;;;;;;1.50;1.08;;;;;;;;;;5020611;28;20422;-73
2023/02/17 14:29:02;;;;;;;4.60;1.30;;;;;;;;;;5016802;28;20151;-73
2023/02/17 14:31:31;;;;;;;1.50;1.00;;;;;;;;;;4992076;28;20054;-74
2023/02/17 14:34:02;;;;;;;1.48;1.10;;;;;;;;;;5002002;28;20065;-72
2023/02/17 14:36:34;;;;;;;3.90;0.80;;;;;;;;;;5018118;28;20068;-73
2023/02/17 14:39:03;;;;;;;0.80;0.55;;;;;;;;;;5019759;28;20053;-75
2023/02/17 14:41:30;;;;;;;2.10;1.20;;;;;;;;;;4996060;28;20556;-73
2023/02/17 14:43:59;;;;;;;1.40;1.20;;;;;;;;;;4987962;28;20046;-72
2023/02/17 14:46:26;;;;;;;1.33;1.00;;;;;;;;;;4996111;28;20053;-73
2023/02/17 14:48:53;;;;;;;2.22;0.80;;;;;;;;;;5000745;28;20058;-73
2023/02/17 14:51:22;;;;;;;1.73;0.95;;;;;;;;;;5015130;28;20141;-74
2023/02/17 14:53:49;;;;;;;3.75;1.33;;;;;;;;;;5009943;28;20505;-73
2023/02/17 14:56:27;;;;;;;4.88;1.20;;;;;;;;;;5000356;28;20046;-73
2023/02/17 14:58:54;;;;;;;2.45;1.20;;;;;;;;;;4997637;28;20046;-73
2023/02/17 15:01:22;;;;;;;2.25;1.38;;;;;;;;;;5016493;28;20073;-74
2023/02/17 15:03:49;;;;;;;1.77;1.17;;;;;;;;;;4998870;28;20081;-73
2023/02/17 15:06:16;;;;;;;2.08;1.38;;;;;;;;;;5001933;28;20104;-73
2023/02/17 15:08:44;;;;;;;1.55;0.90;;;;;;;;;;5015537;28;20060;-73
2023/02/17 15:11:36;;;;;;;1.25;0.85;;;;;;;;;;4985559;28;20343;-73
2023/02/17 15:14:03;;;;;;;1.15;0.95;;;;;;;;;;5014930;28;20433;-73